Sitka, AK

7:16 PM AKDT on August 20, 2014 (GMT -0800)
Sitka Rocky Gutierrez | Change Station
CLOSE
Current Station
Airport
Location: Sitka,
Elevation: 20 ft
Nearby Weather Stations

Elev 20 ft 57.05 °N, 135.36 °W | Updated 23 minutes ago

Clear
Clear
64 °F
Feels Like 64 °F
N
0
Wind Variable Wind from North

Today
High -- | Low -- °F
--% Chance of Precip.
Yesterday
High -- | Low -- °F
Precip. -- in
5:39 AM 8:28 PM
Waning Crescent, 17% visible
Pressure 29.97 in
Visibility 10.0 miles
Clouds Clear
Dew Point 53 °F
Humidity 67%
Rainfall 0.00 in
Snow Depth Not available.
UV 1 out of 12
Pollen Not available.
Air Quality Not available.
Flu Activity Not available.
METAR PASI 210253Z 00000KT 10SM CLR 18/12 A2997 RMK AO2 SLP149 T01780117 55000

More Conditions Fewer Conditions

Pressure 29.97 in
Visibility 10.0 miles
Clouds Clear
Dew Point 53 °F
Humidity 67%
Rainfall 0.00 in
Snow Depth Not available.
UV 1 out of 12
Pollen Not available.
Air Quality Not available.
Flu Activity Not available.
METAR PASI 210253Z 00000KT 10SM CLR 18/12 A2997 RMK AO2 SLP149 T01780117 55000

More Conditions Fewer Conditions

10-Day Weather Forecast

Almanac

Astronomy

Aug. 20, 2014 Rise Set
Actual Time 5:39 AM AKDT 8:28 PM AKDT
Civil Twilight 4:55 AM AKDT 9:12 PM AKDT
Nautical Twilight 3:57 AM AKDT 10:09 PM AKDT
Astronomical Twilight 2:36 AM AKDT 11:27 PM AKDT
Moon 1:02 AM AKDT (8/20) 5:40 PM AKDT (8/20)
Length of Visible Light 16h 16m
Length of Day
14h 49m
Tomorrow will be 4m 38s shorter.
Waning Crescent, 17% of the Moon is Illuminated
Today
Waning Crescent
Aug 25
New
Sep 2
First Quarter
Sep 8
Full
Sep 15
Last Quarter

Today's Extremes

State Highs State Lows

Community

WunderPhotos

Upload Photos

1,745,843 photos uploaded!

Nearby

Snow Depth

Station Depth Elevation
Long Lake 0 in 820 ft
Upper Tsaina River 0 in 1750 ft
Grouse Creek Divide 0 in 700 ft
Turnagain Pass 1 in 1880 ft
Summit Creek 0 in 1400 ft

Earthquake Activity

City Distance Mag. Time & Date
No recent earthquake activity has been reported nearby.
Minimum magnitude displayed is 2.5.

Coastal Water Temperatures

Place Temperature
No Stations Reporting

Nearby Weather Stations